sensor_id;sensor_type;location;lat;lon;timestamp;temperature;humidity
45685;DHT22;46836;48.388;16.210;2023-04-03T00:01:08;6.10;99.90
45685;DHT22;46836;48.388;16.210;2023-04-03T00:03:35;6.10;99.90
45685;DHT22;46836;48.388;16.210;2023-04-03T00:06:04;6.10;99.90
45685;DHT22;46836;48.388;16.210;2023-04-03T00:08:33;6.10;99.90
45685;DHT22;46836;48.388;16.210;2023-04-03T00:11:01;6.10;99.90
45685;DHT22;46836;48.388;16.210;2023-04-03T00:13:28;6.10;99.90
45685;DHT22;46836;48.388;16.210;2023-04-03T00:15:56;6.10;99.90
45685;DHT22;46836;48.388;16.210;2023-04-03T00:18:23;6.10;99.90
45685;DHT22;46836;48.388;16.210;2023-04-03T00:20:50;6.10;99.90
45685;DHT22;46836;48.388;16.210;2023-04-03T00:23:17;6.00;99.90
45685;DHT22;46836;48.388;16.210;2023-04-03T00:25:44;6.00;99.90
45685;DHT22;46836;48.388;16.210;2023-04-03T00:28:12;6.00;99.90
45685;DHT22;46836;48.388;16.210;2023-04-03T00:30:39;6.00;99.90
45685;DHT22;46836;48.388;16.210;2023-04-03T00:33:06;6.00;99.90
45685;DHT22;46836;48.388;16.210;2023-04-03T00:35:34;6.00;99.90
45685;DHT22;46836;48.388;16.210;2023-04-03T00:38:02;6.00;99.90
45685;DHT22;46836;48.388;16.210;2023-04-03T00:40:38;6.00;99.90
45685;DHT22;46836;48.388;16.210;2023-04-03T00:43:21;5.90;99.90
45685;DHT22;46836;48.388;16.210;2023-04-03T00:45:51;6.00;99.90
45685;DHT22;46836;48.388;16.210;2023-04-03T00:50:56;5.90;99.90
45685;DHT22;46836;48.388;16.210;2023-04-03T00:53:30;5.90;99.90
45685;DHT22;46836;48.388;16.210;2023-04-03T00:55:58;5.90;99.90
45685;DHT22;46836;48.388;16.210;2023-04-03T00:58:42;5.90;99.90
45685;DHT22;46836;48.388;16.210;2023-04-03T01:01:15;5.90;99.90
45685;DHT22;46836;48.388;16.210;2023-04-03T01:03:44;5.90;99.90
45685;DHT22;46836;48.388;16.210;2023-04-03T01:06:11;5.90;99.90
45685;DHT22;46836;48.388;16.210;2023-04-03T01:08:39;5.90;99.90
45685;DHT22;46836;48.388;16.210;2023-04-03T01:11:06;5.80;99.90
45685;DHT22;46836;48.388;16.210;2023-04-03T01:13:34;5.80;99.90
45685;DHT22;46836;48.388;16.210;2023-04-03T01:16:02;5.80;99.90
45685;DHT22;46836;48.388;16.210;2023-04-03T01:18:31;5.80;99.90
45685;DHT22;46836;48.388;16.210;2023-04-03T01:21:36;5.80;99.90
45685;DHT22;46836;48.388;16.210;2023-04-03T01:26:56;5.70;99.90
45685;DHT22;46836;48.388;16.210;2023-04-03T01:29:23;5.70;99.90
45685;DHT22;46836;48.388;16.210;2023-04-03T01:31:56;5.80;99.90
45685;DHT22;46836;48.388;16.210;2023-04-03T01:34:25;5.80;99.90
45685;DHT22;46836;48.388;16.210;2023-04-03T01:36:53;5.80;99.90
45685;DHT22;46836;48.388;16.210;2023-04-03T01:39:21;5.70;99.90
45685;DHT22;46836;48.388;16.210;2023-04-03T01:41:48;5.80;99.90
45685;DHT22;46836;48.388;16.210;2023-04-03T01:44:16;5.80;99.90
45685;DHT22;46836;48.388;16.210;2023-04-03T01:46:43;5.80;99.90
45685;DHT22;46836;48.388;16.210;2023-04-03T01:49:10;5.80;99.90
45685;DHT22;46836;48.388;16.210;2023-04-03T01:51:37;5.80;99.90
45685;DHT22;46836;48.388;16.210;2023-04-03T01:54:04;5.70;99.90
45685;DHT22;46836;48.388;16.210;2023-04-03T01:56:31;5.70;99.90
45685;DHT22;46836;48.388;16.210;2023-04-03T01:58:59;5.70;99.90
45685;DHT22;46836;48.388;16.210;2023-04-03T02:01:26;5.70;99.90
45685;DHT22;46836;48.388;16.210;2023-04-03T02:03:53;5.70;99.90
45685;DHT22;46836;48.388;16.210;2023-04-03T02:06:20;5.70;99.90
45685;DHT22;46836;48.388;16.210;2023-04-03T02:08:47;5.70;99.90
45685;DHT22;46836;48.388;16.210;2023-04-03T02:11:14;5.70;99.90
45685;DHT22;46836;48.388;16.210;2023-04-03T02:13:41;5.70;99.90
45685;DHT22;46836;48.388;16.210;2023-04-03T02:16:10;5.70;99.90
45685;DHT22;46836;48.388;16.210;2023-04-03T02:18:38;5.70;99.90
45685;DHT22;46836;48.388;16.210;2023-04-03T02:21:05;5.60;99.90
45685;DHT22;46836;48.388;16.210;2023-04-03T02:23:33;5.70;99.90
45685;DHT22;46836;48.388;16.210;2023-04-03T02:26:11;5.70;99.90
45685;DHT22;46836;48.388;16.210;2023-04-03T02:28:39;5.60;99.90
45685;DHT22;46836;48.388;16.210;2023-04-03T02:31:07;5.70;99.90
45685;DHT22;46836;48.388;16.210;2023-04-03T02:33:35;5.70;99.90
45685;DHT22;46836;48.388;16.210;2023-04-03T02:36:07;5.60;99.90
45685;DHT22;46836;48.388;16.210;2023-04-03T02:38:34;5.60;99.90
45685;DHT22;46836;48.388;16.210;2023-04-03T02:41:11;5.70;99.90
45685;DHT22;46836;48.388;16.210;2023-04-03T02:43:39;5.70;99.90
45685;DHT22;46836;48.388;16.210;2023-04-03T02:46:06;5.70;99.90
45685;DHT22;46836;48.388;16.210;2023-04-03T02:48:34;5.60;99.90
45685;DHT22;46836;48.388;16.210;2023-04-03T02:51:01;5.60;99.90
45685;DHT22;46836;48.388;16.210;2023-04-03T02:53:28;5.70;99.90
45685;DHT22;46836;48.388;16.210;2023-04-03T02:55:55;5.70;99.90
45685;DHT22;46836;48.388;16.210;2023-04-03T02:58:22;5.70;99.90
45685;DHT22;46836;48.388;16.210;2023-04-03T03:00:49;5.70;99.90
45685;DHT22;46836;48.388;16.210;2023-04-03T03:03:16;5.60;99.90
45685;DHT22;46836;48.388;16.210;2023-04-03T03:05:43;5.60;99.90
45685;DHT22;46836;48.388;16.210;2023-04-03T03:08:10;5.60;99.90
45685;DHT22;46836;48.388;16.210;2023-04-03T03:10:37;5.60;99.90
45685;DHT22;46836;48.388;16.210;2023-04-03T03:13:05;5.60;99.90
45685;DHT22;46836;48.388;16.210;2023-04-03T03:15:32;5.60;99.90
45685;DHT22;46836;48.388;16.210;2023-04-03T03:17:59;5.60;99.90
45685;DHT22;46836;48.388;16.210;2023-04-03T03:20:26;5.50;99.90
45685;DHT22;46836;48.388;16.210;2023-04-03T03:22:53;5.50;99.90
45685;DHT22;46836;48.388;16.210;2023-04-03T03:25:20;5.50;99.90
45685;DHT22;46836;48.388;16.210;2023-04-03T03:27:47;5.50;99.90
45685;DHT22;46836;48.388;16.210;2023-04-03T03:30:14;5.50;99.90
45685;DHT22;46836;48.388;16.210;2023-04-03T03:32:41;5.50;99.90
45685;DHT22;46836;48.388;16.210;2023-04-03T03:35:08;5.50;99.90
45685;DHT22;46836;48.388;16.210;2023-04-03T03:37:35;5.50;99.90
45685;DHT22;46836;48.388;16.210;2023-04-03T03:40:02;5.50;99.90
45685;DHT22;46836;48.388;16.210;2023-04-03T03:42:30;5.50;99.90
45685;DHT22;46836;48.388;16.210;2023-04-03T03:44:57;5.50;99.90
45685;DHT22;46836;48.388;16.210;2023-04-03T03:47:24;5.50;99.90
45685;DHT22;46836;48.388;16.210;2023-04-03T03:49:51;5.50;99.90
45685;DHT22;46836;48.388;16.210;2023-04-03T03:52:18;5.50;99.90
45685;DHT22;46836;48.388;16.210;2023-04-03T03:54:45;5.40;99.90
45685;DHT22;46836;48.388;16.210;2023-04-03T03:57:12;5.50;99.90
45685;DHT22;46836;48.388;16.210;2023-04-03T03:59:39;5.50;99.90
45685;DHT22;46836;48.388;16.210;2023-04-03T04:02:08;5.50;99.90
45685;DHT22;46836;48.388;16.210;2023-04-03T04:04:36;5.50;99.90
45685;DHT22;46836;48.388;16.210;2023-04-03T04:07:03;5.40;99.90
45685;DHT22;46836;48.388;16.210;2023-04-03T04:09:30;5.50;99.90
45685;DHT22;46836;48.388;16.210;2023-04-03T04:11:57;5.50;99.90
45685;DHT22;46836;48.388;16.210;2023-04-03T04:14:24;5.50;99.90
45685;DHT22;46836;48.388;16.210;2023-04-03T04:16:51;5.50;99.90
45685;DHT22;46836;48.388;16.210;2023-04-03T04:19:18;5.50;99.90
45685;DHT22;46836;48.388;16.210;2023-04-03T04:21:45;5.40;99.90
45685;DHT22;46836;48.388;16.210;2023-04-03T04:24:12;5.50;99.90
45685;DHT22;46836;48.388;16.210;2023-04-03T04:26:39;5.40;99.90
45685;DHT22;46836;48.388;16.210;2023-04-03T04:29:09;5.40;99.90
45685;DHT22;46836;48.388;16.210;2023-04-03T04:31:36;5.30;99.90
45685;DHT22;46836;48.388;16.210;2023-04-03T04:34:03;5.30;99.90
45685;DHT22;46836;48.388;16.210;2023-04-03T04:36:30;5.30;99.90
45685;DHT22;46836;48.388;16.210;2023-04-03T04:38:57;5.20;99.90
45685;DHT22;46836;48.388;16.210;2023-04-03T04:41:25;5.20;99.90
45685;DHT22;46836;48.388;16.210;2023-04-03T04:43:52;5.30;99.90
45685;DHT22;46836;48.388;16.210;2023-04-03T04:46:19;5.30;99.90
45685;DHT22;46836;48.388;16.210;2023-04-03T04:48:46;5.20;99.90
45685;DHT22;46836;48.388;16.210;2023-04-03T04:51:15;5.20;99.90
45685;DHT22;46836;48.388;16.210;2023-04-03T04:53:42;5.20;99.90
45685;DHT22;46836;48.388;16.210;2023-04-03T04:56:10;5.20;99.90
45685;DHT22;46836;48.388;16.210;2023-04-03T04:58:37;5.10;99.90
45685;DHT22;46836;48.388;16.210;2023-04-03T05:01:07;5.10;99.90
45685;DHT22;46836;48.388;16.210;2023-04-03T05:03:35;5.10;99.90
45685;DHT22;46836;48.388;16.210;2023-04-03T05:06:02;5.10;99.90
45685;DHT22;46836;48.388;16.210;2023-04-03T05:08:30;5.10;99.90
45685;DHT22;46836;48.388;16.210;2023-04-03T05:10:57;5.00;99.90
45685;DHT22;46836;48.388;16.210;2023-04-03T05:13:24;5.10;99.90
45685;DHT22;46836;48.388;16.210;2023-04-03T05:15:51;5.10;99.90
45685;DHT22;46836;48.388;16.210;2023-04-03T05:18:19;5.10;99.90
45685;DHT22;46836;48.388;16.210;2023-04-03T05:20:48;5.00;99.90
45685;DHT22;46836;48.388;16.210;2023-04-03T05:23:17;5.00;99.90
45685;DHT22;46836;48.388;16.210;2023-04-03T05:25:44;5.00;99.90
45685;DHT22;46836;48.388;16.210;2023-04-03T05:28:13;5.00;99.90
45685;DHT22;46836;48.388;16.210;2023-04-03T05:30:41;5.00;99.90
45685;DHT22;46836;48.388;16.210;2023-04-03T05:33:08;5.10;99.90
45685;DHT22;46836;48.388;16.210;2023-04-03T05:35:37;5.10;99.90
45685;DHT22;46836;48.388;16.210;2023-04-03T05:38:07;5.10;99.90
45685;DHT22;46836;48.388;16.210;2023-04-03T05:40:34;5.10;99.90
45685;DHT22;46836;48.388;16.210;2023-04-03T05:43:02;5.20;99.90
45685;DHT22;46836;48.388;16.210;2023-04-03T05:45:29;5.20;99.90
45685;DHT22;46836;48.388;16.210;2023-04-03T05:47:56;5.20;99.90
45685;DHT22;46836;48.388;16.210;2023-04-03T05:50:23;5.20;99.90
45685;DHT22;46836;48.388;16.210;2023-04-03T05:52:52;5.20;99.90
45685;DHT22;46836;48.388;16.210;2023-04-03T05:55:21;5.10;99.90
45685;DHT22;46836;48.388;16.210;2023-04-03T05:57:48;5.20;99.90
45685;DHT22;46836;48.388;16.210;2023-04-03T06:00:15;5.20;99.90
45685;DHT22;46836;48.388;16.210;2023-04-03T06:02:43;5.10;99.90
45685;DHT22;46836;48.388;16.210;2023-04-03T06:05:10;5.10;99.90
45685;DHT22;46836;48.388;16.210;2023-04-03T06:07:39;5.00;99.90
45685;DHT22;46836;48.388;16.210;2023-04-03T06:10:07;5.10;99.90
45685;DHT22;46836;48.388;16.210;2023-04-03T06:12:34;5.10;99.90
45685;DHT22;46836;48.388;16.210;2023-04-03T06:15:01;5.20;99.90
45685;DHT22;46836;48.388;16.210;2023-04-03T06:17:28;5.20;99.90
45685;DHT22;46836;48.388;16.210;2023-04-03T06:19:56;5.20;99.90
45685;DHT22;46836;48.388;16.210;2023-04-03T06:22:25;5.20;99.90
45685;DHT22;46836;48.388;16.210;2023-04-03T06:24:52;5.20;99.90
45685;DHT22;46836;48.388;16.210;2023-04-03T06:27:19;5.20;99.90
45685;DHT22;46836;48.388;16.210;2023-04-03T06:29:47;5.20;99.90
45685;DHT22;46836;48.388;16.210;2023-04-03T06:32:16;5.20;99.90
45685;DHT22;46836;48.388;16.210;2023-04-03T06:34:43;5.20;99.90
45685;DHT22;46836;48.388;16.210;2023-04-03T06:37:17;5.20;99.90
45685;DHT22;46836;48.388;16.210;2023-04-03T06:39:45;5.20;99.90
45685;DHT22;46836;48.388;16.210;2023-04-03T06:42:12;5.20;99.90
45685;DHT22;46836;48.388;16.210;2023-04-03T06:44:39;5.20;99.90
45685;DHT22;46836;48.388;16.210;2023-04-03T06:47:08;5.20;99.90
45685;DHT22;46836;48.388;16.210;2023-04-03T06:49:36;5.20;99.90
45685;DHT22;46836;48.388;16.210;2023-04-03T06:52:03;5.20;99.90
45685;DHT22;46836;48.388;16.210;2023-04-03T06:54:32;5.20;99.90
45685;DHT22;46836;48.388;16.210;2023-04-03T06:56:59;5.20;99.90
45685;DHT22;46836;48.388;16.210;2023-04-03T06:59:27;5.20;99.90
45685;DHT22;46836;48.388;16.210;2023-04-03T07:01:54;5.30;99.90
45685;DHT22;46836;48.388;16.210;2023-04-03T07:04:21;5.30;99.90
45685;DHT22;46836;48.388;16.210;2023-04-03T07:06:49;5.30;99.90
45685;DHT22;46836;48.388;16.210;2023-04-03T07:09:16;5.40;99.90
45685;DHT22;46836;48.388;16.210;2023-04-03T07:11:43;5.40;99.90
45685;DHT22;46836;48.388;16.210;2023-04-03T07:14:10;5.50;99.90
45685;DHT22;46836;48.388;16.210;2023-04-03T07:16:37;5.50;99.90
45685;DHT22;46836;48.388;16.210;2023-04-03T07:19:08;5.50;99.90
45685;DHT22;46836;48.388;16.210;2023-04-03T07:21:35;5.60;99.90
45685;DHT22;46836;48.388;16.210;2023-04-03T07:24:02;5.70;99.90
45685;DHT22;46836;48.388;16.210;2023-04-03T07:26:30;5.70;99.90
45685;DHT22;46836;48.388;16.210;2023-04-03T07:28:57;5.80;99.90
45685;DHT22;46836;48.388;16.210;2023-04-03T07:31:24;5.80;99.90
45685;DHT22;46836;48.388;16.210;2023-04-03T07:33:52;5.80;99.90
45685;DHT22;46836;48.388;16.210;2023-04-03T07:36:21;5.80;99.90
45685;DHT22;46836;48.388;16.210;2023-04-03T07:38:49;5.80;99.90
45685;DHT22;46836;48.388;16.210;2023-04-03T07:41:17;5.90;99.90
45685;DHT22;46836;48.388;16.210;2023-04-03T07:43:45;6.00;99.90
45685;DHT22;46836;48.388;16.210;2023-04-03T07:46:13;6.10;99.90
45685;DHT22;46836;48.388;16.210;2023-04-03T07:48:40;6.10;99.90
45685;DHT22;46836;48.388;16.210;2023-04-03T07:51:07;6.10;99.90
45685;DHT22;46836;48.388;16.210;2023-04-03T07:53:34;6.10;99.90
45685;DHT22;46836;48.388;16.210;2023-04-03T07:56:01;6.20;99.90
45685;DHT22;46836;48.388;16.210;2023-04-03T07:58:30;6.30;99.90
45685;DHT22;46836;48.388;16.210;2023-04-03T08:00:57;6.40;99.90
45685;DHT22;46836;48.388;16.210;2023-04-03T08:03:24;6.40;99.90
45685;DHT22;46836;48.388;16.210;2023-04-03T08:05:52;6.50;99.90
45685;DHT22;46836;48.388;16.210;2023-04-03T08:08:22;6.60;99.90
45685;DHT22;46836;48.388;16.210;2023-04-03T08:10:54;6.60;99.90
45685;DHT22;46836;48.388;16.210;2023-04-03T08:13:21;6.60;99.90
45685;DHT22;46836;48.388;16.210;2023-04-03T08:15:49;6.70;99.90
45685;DHT22;46836;48.388;16.210;2023-04-03T08:18:16;6.80;99.90
45685;DHT22;46836;48.388;16.210;2023-04-03T08:20:43;6.80;99.90
45685;DHT22;46836;48.388;16.210;2023-04-03T08:23:11;6.90;99.90
45685;DHT22;46836;48.388;16.210;2023-04-03T08:25:39;6.80;99.90
45685;DHT22;46836;48.388;16.210;2023-04-03T08:28:08;7.00;99.90
45685;DHT22;46836;48.388;16.210;2023-04-03T08:30:35;6.80;99.90
45685;DHT22;46836;48.388;16.210;2023-04-03T08:33:03;6.80;99.90
45685;DHT22;46836;48.388;16.210;2023-04-03T08:35:30;6.70;99.90
45685;DHT22;46836;48.388;16.210;2023-04-03T08:37:58;6.80;99.90
45685;DHT22;46836;48.388;16.210;2023-04-03T08:40:25;6.70;99.90
45685;DHT22;46836;48.388;16.210;2023-04-03T08:45:52;6.80;99.90
45685;DHT22;46836;48.388;16.210;2023-04-03T08:48:27;7.00;99.90
45685;DHT22;46836;48.388;16.210;2023-04-03T08:51:02;7.20;99.90
45685;DHT22;46836;48.388;16.210;2023-04-03T08:53:40;7.40;99.90
45685;DHT22;46836;48.388;16.210;2023-04-03T08:56:10;7.50;99.90
45685;DHT22;46836;48.388;16.210;2023-04-03T08:58:52;7.30;99.90
45685;DHT22;46836;48.388;16.210;2023-04-03T09:01:38;6.90;99.90
45685;DHT22;46836;48.388;16.210;2023-04-03T09:04:14;6.70;99.90
45685;DHT22;46836;48.388;16.210;2023-04-03T09:06:54;6.70;99.90
45685;DHT22;46836;48.388;16.210;2023-04-03T09:09:27;6.70;99.90
45685;DHT22;46836;48.388;16.210;2023-04-03T09:12:24;7.20;99.90
45685;DHT22;46836;48.388;16.210;2023-04-03T09:15:20;7.30;99.90
45685;DHT22;46836;48.388;16.210;2023-04-03T09:20:54;7.40;99.90
45685;DHT22;46836;48.388;16.210;2023-04-03T09:23:41;7.30;99.90
45685;DHT22;46836;48.388;16.210;2023-04-03T09:26:16;7.30;99.90
45685;DHT22;46836;48.388;16.210;2023-04-03T09:28:44;7.30;99.90
45685;DHT22;46836;48.388;16.210;2023-04-03T09:31:29;7.20;99.90
45685;DHT22;46836;48.388;16.210;2023-04-03T09:34:02;7.30;99.90
45685;DHT22;46836;48.388;16.210;2023-04-03T09:36:51;7.10;99.90
45685;DHT22;46836;48.388;16.210;2023-04-03T09:39:21;7.10;99.90
45685;DHT22;46836;48.388;16.210;2023-04-03T09:42:02;6.90;99.90
45685;DHT22;46836;48.388;16.210;2023-04-03T09:44:38;6.90;99.90
45685;DHT22;46836;48.388;16.210;2023-04-03T09:47:27;6.70;99.90
45685;DHT22;46836;48.388;16.210;2023-04-03T09:50:20;6.90;99.90
45685;DHT22;46836;48.388;16.210;2023-04-03T09:52:49;6.80;99.90
45685;DHT22;46836;48.388;16.210;2023-04-03T09:55:21;6.90;99.90
45685;DHT22;46836;48.388;16.210;2023-04-03T09:58:04;6.90;99.90
45685;DHT22;46836;48.388;16.210;2023-04-03T10:00:37;7.00;99.90
45685;DHT22;46836;48.388;16.210;2023-04-03T10:03:08;6.90;99.50
45685;DHT22;46836;48.388;16.210;2023-04-03T10:05:50;6.90;99.90
45685;DHT22;46836;48.388;16.210;2023-04-03T10:08:23;6.90;99.90
45685;DHT22;46836;48.388;16.210;2023-04-03T10:11:23;7.00;99.90
45685;DHT22;46836;48.388;16.210;2023-04-03T10:13:59;6.90;99.90
45685;DHT22;46836;48.388;16.210;2023-04-03T10:16:38;6.80;99.90
45685;DHT22;46836;48.388;16.210;2023-04-03T10:19:34;6.70;99.90
45685;DHT22;46836;48.388;16.210;2023-04-03T10:24:54;6.70;99.90
45685;DHT22;46836;48.388;16.210;2023-04-03T10:41:33;6.50;99.30
45685;DHT22;46836;48.388;16.210;2023-04-03T10:44:15;6.40;99.30
45685;DHT22;46836;48.388;16.210;2023-04-03T10:46:49;6.40;99.50
45685;DHT22;46836;48.388;16.210;2023-04-03T10:49:25;6.50;99.90
45685;DHT22;46836;48.388;16.210;2023-04-03T10:52:06;6.50;99.90
45685;DHT22;46836;48.388;16.210;2023-04-03T10:54:44;6.40;99.90
45685;DHT22;46836;48.388;16.210;2023-04-03T10:57:13;6.60;99.90
45685;DHT22;46836;48.388;16.210;2023-04-03T11:02:32;6.40;97.30
45685;DHT22;46836;48.388;16.210;2023-04-03T11:05:14;6.50;99.90
45685;DHT22;46836;48.388;16.210;2023-04-03T11:07:47;6.50;99.90
45685;DHT22;46836;48.388;16.210;2023-04-03T11:10:23;6.40;98.00
45685;DHT22;46836;48.388;16.210;2023-04-03T11:13:01;6.50;98.00
45685;DHT22;46836;48.388;16.210;2023-04-03T11:15:30;6.50;97.20
45685;DHT22;46836;48.388;16.210;2023-04-03T11:18:08;6.60;98.50
45685;DHT22;46836;48.388;16.210;2023-04-03T11:20:40;6.60;98.40
45685;DHT22;46836;48.388;16.210;2023-04-03T11:23:24;6.60;98.40
45685;DHT22;46836;48.388;16.210;2023-04-03T11:26:12;6.70;95.10
45685;DHT22;46836;48.388;16.210;2023-04-03T11:28:41;6.60;94.20
45685;DHT22;46836;48.388;16.210;2023-04-03T11:36:41;6.50;96.40
45685;DHT22;46836;48.388;16.210;2023-04-03T11:39:30;6.60;97.20
45685;DHT22;46836;48.388;16.210;2023-04-03T11:42:35;6.60;96.10
45685;DHT22;46836;48.388;16.210;2023-04-03T11:50:49;6.60;95.80
45685;DHT22;46836;48.388;16.210;2023-04-03T11:58:17;6.50;94.60
45685;DHT22;46836;48.388;16.210;2023-04-03T12:08:44;6.50;97.00
45685;DHT22;46836;48.388;16.210;2023-04-03T12:16:23;6.60;95.50
45685;DHT22;46836;48.388;16.210;2023-04-03T12:26:44;6.50;95.50
45685;DHT22;46836;48.388;16.210;2023-04-03T12:35:39;6.50;95.20
45685;DHT22;46836;48.388;16.210;2023-04-03T12:38:10;6.60;95.50
45685;DHT22;46836;48.388;16.210;2023-04-03T12:41:11;6.50;92.10
45685;DHT22;46836;48.388;16.210;2023-04-03T12:47:02;6.90;91.10
45685;DHT22;46836;48.388;16.210;2023-04-03T12:49:42;7.00;94.40
45685;DHT22;46836;48.388;16.210;2023-04-03T12:52:54;7.00;92.80
45685;DHT22;46836;48.388;16.210;2023-04-03T12:55:23;7.00;91.60
45685;DHT22;46836;48.388;16.210;2023-04-03T12:57:50;6.90;92.70
45685;DHT22;46836;48.388;16.210;2023-04-03T13:00:28;6.80;92.30
45685;DHT22;46836;48.388;16.210;2023-04-03T13:02:56;7.00;94.20
45685;DHT22;46836;48.388;16.210;2023-04-03T13:05:24;7.20;92.80
45685;DHT22;46836;48.388;16.210;2023-04-03T13:08:02;7.70;92.20
45685;DHT22;46836;48.388;16.210;2023-04-03T13:10:49;7.90;90.80
45685;DHT22;46836;48.388;16.210;2023-04-03T13:13:17;7.90;92.10
45685;DHT22;46836;48.388;16.210;2023-04-03T13:15:47;7.70;93.00
45685;DHT22;46836;48.388;16.210;2023-04-03T13:18:31;7.60;91.90
45685;DHT22;46836;48.388;16.210;2023-04-03T13:21:15;7.60;91.80
45685;DHT22;46836;48.388;16.210;2023-04-03T13:23:47;7.80;91.30
45685;DHT22;46836;48.388;16.210;2023-04-03T13:26:20;7.70;93.10
45685;DHT22;46836;48.388;16.210;2023-04-03T13:28:49;7.70;92.00
45685;DHT22;46836;48.388;16.210;2023-04-03T13:31:23;7.40;91.90
45685;DHT22;46836;48.388;16.210;2023-04-03T13:36:35;7.20;92.80
45685;DHT22;46836;48.388;16.210;2023-04-03T13:41:50;7.00;92.70
45685;DHT22;46836;48.388;16.210;2023-04-03T13:44:30;7.10;95.10
45685;DHT22;46836;48.388;16.210;2023-04-03T13:50:04;7.30;95.40
45685;DHT22;46836;48.388;16.210;2023-04-03T13:52:38;7.40;92.40
45685;DHT22;46836;48.388;16.210;2023-04-03T13:55:23;7.40;92.30
45685;DHT22;46836;48.388;16.210;2023-04-03T14:01:01;7.10;90.80
45685;DHT22;46836;48.388;16.210;2023-04-03T14:03:33;7.10;91.90
45685;DHT22;46836;48.388;16.210;2023-04-03T14:06:13;6.90;91.80
45685;DHT22;46836;48.388;16.210;2023-04-03T14:08:40;6.80;91.80
45685;DHT22;46836;48.388;16.210;2023-04-03T14:11:16;6.80;91.50
45685;DHT22;46836;48.388;16.210;2023-04-03T14:13:45;6.80;91.90
45685;DHT22;46836;48.388;16.210;2023-04-03T14:16:22;6.70;92.40
45685;DHT22;46836;48.388;16.210;2023-04-03T14:18:50;6.70;92.30
45685;DHT22;46836;48.388;16.210;2023-04-03T14:21:19;6.80;93.40
45685;DHT22;46836;48.388;16.210;2023-04-03T14:23:48;6.90;94.10
45685;DHT22;46836;48.388;16.210;2023-04-03T14:26:19;6.90;93.70
45685;DHT22;46836;48.388;16.210;2023-04-03T14:28:50;6.90;92.70
45685;DHT22;46836;48.388;16.210;2023-04-03T14:31:19;6.90;92.60
45685;DHT22;46836;48.388;16.210;2023-04-03T14:33:46;6.90;93.90
45685;DHT22;46836;48.388;16.210;2023-04-03T14:36:21;6.90;92.70
45685;DHT22;46836;48.388;16.210;2023-04-03T14:38:49;6.70;92.00
45685;DHT22;46836;48.388;16.210;2023-04-03T14:41:19;6.60;92.70
45685;DHT22;46836;48.388;16.210;2023-04-03T14:43:47;6.60;92.40
45685;DHT22;46836;48.388;16.210;2023-04-03T14:46:17;6.60;93.00
45685;DHT22;46836;48.388;16.210;2023-04-03T14:48:45;6.60;91.70
45685;DHT22;46836;48.388;16.210;2023-04-03T14:51:14;6.60;92.30
45685;DHT22;46836;48.388;16.210;2023-04-03T14:53:43;6.60;92.40
45685;DHT22;46836;48.388;16.210;2023-04-03T14:56:17;6.70;93.50
45685;DHT22;46836;48.388;16.210;2023-04-03T14:58:45;6.60;91.50
45685;DHT22;46836;48.388;16.210;2023-04-03T15:01:17;6.60;90.30
45685;DHT22;46836;48.388;16.210;2023-04-03T15:03:44;6.80;92.10
45685;DHT22;46836;48.388;16.210;2023-04-03T15:06:13;6.90;91.20
45685;DHT22;46836;48.388;16.210;2023-04-03T15:08:41;7.10;92.40
45685;DHT22;46836;48.388;16.210;2023-04-03T15:11:10;7.20;91.20
45685;DHT22;46836;48.388;16.210;2023-04-03T15:13:38;7.10;90.60
45685;DHT22;46836;48.388;16.210;2023-04-03T15:16:11;7.00;90.30
45685;DHT22;46836;48.388;16.210;2023-04-03T15:18:40;6.60;90.20
45685;DHT22;46836;48.388;16.210;2023-04-03T15:21:07;6.50;90.40
45685;DHT22;46836;48.388;16.210;2023-04-03T15:23:34;6.40;90.00
45685;DHT22;46836;48.388;16.210;2023-04-03T15:26:01;6.40;90.60
45685;DHT22;46836;48.388;16.210;2023-04-03T15:28:39;6.30;89.20
45685;DHT22;46836;48.388;16.210;2023-04-03T15:31:08;6.30;90.90
45685;DHT22;46836;48.388;16.210;2023-04-03T15:33:36;6.20;90.50
45685;DHT22;46836;48.388;16.210;2023-04-03T15:36:04;6.30;91.40
45685;DHT22;46836;48.388;16.210;2023-04-03T15:38:37;6.30;90.90
45685;DHT22;46836;48.388;16.210;2023-04-03T15:41:05;6.20;90.60
45685;DHT22;46836;48.388;16.210;2023-04-03T15:43:32;6.10;90.30
45685;DHT22;46836;48.388;16.210;2023-04-03T15:46:03;6.10;90.90
45685;DHT22;46836;48.388;16.210;2023-04-03T15:48:31;6.00;90.40
45685;DHT22;46836;48.388;16.210;2023-04-03T15:50:59;6.00;90.80
45685;DHT22;46836;48.388;16.210;2023-04-03T15:53:26;5.90;89.40
45685;DHT22;46836;48.388;16.210;2023-04-03T15:55:53;6.00;91.90
45685;DHT22;46836;48.388;16.210;2023-04-03T15:58:20;6.10;91.50
45685;DHT22;46836;48.388;16.210;2023-04-03T16:00:48;6.10;90.50
45685;DHT22;46836;48.388;16.210;2023-04-03T16:03:18;6.10;91.70
45685;DHT22;46836;48.388;16.210;2023-04-03T16:05:46;6.10;90.70
45685;DHT22;46836;48.388;16.210;2023-04-03T16:08:14;6.00;90.50
45685;DHT22;46836;48.388;16.210;2023-04-03T16:10:41;5.90;90.40
45685;DHT22;46836;48.388;16.210;2023-04-03T16:13:08;5.80;91.50
45685;DHT22;46836;48.388;16.210;2023-04-03T16:15:35;5.80;91.40
45685;DHT22;46836;48.388;16.210;2023-04-03T16:18:03;5.80;91.90
45685;DHT22;46836;48.388;16.210;2023-04-03T16:20:32;5.80;92.40
45685;DHT22;46836;48.388;16.210;2023-04-03T16:23:00;5.80;92.00
45685;DHT22;46836;48.388;16.210;2023-04-03T16:25:27;5.70;91.00
45685;DHT22;46836;48.388;16.210;2023-04-03T16:27:55;5.70;91.30
45685;DHT22;46836;48.388;16.210;2023-04-03T16:30:22;5.60;91.60
45685;DHT22;46836;48.388;16.210;2023-04-03T16:32:49;5.60;91.50
45685;DHT22;46836;48.388;16.210;2023-04-03T16:35:16;5.60;92.00
45685;DHT22;46836;48.388;16.210;2023-04-03T16:37:43;5.60;93.10
45685;DHT22;46836;48.388;16.210;2023-04-03T16:40:11;5.60;92.50
45685;DHT22;46836;48.388;16.210;2023-04-03T16:42:39;5.50;92.10
45685;DHT22;46836;48.388;16.210;2023-04-03T16:45:07;5.50;92.00
45685;DHT22;46836;48.388;16.210;2023-04-03T16:47:34;5.40;92.30
45685;DHT22;46836;48.388;16.210;2023-04-03T16:50:02;5.30;91.40
45685;DHT22;46836;48.388;16.210;2023-04-03T16:52:29;5.40;92.20
45685;DHT22;46836;48.388;16.210;2023-04-03T16:54:57;5.30;92.00
45685;DHT22;46836;48.388;16.210;2023-04-03T16:57:25;5.30;91.60
45685;DHT22;46836;48.388;16.210;2023-04-03T16:59:53;5.20;91.80
45685;DHT22;46836;48.388;16.210;2023-04-03T17:02:23;5.20;91.90
45685;DHT22;46836;48.388;16.210;2023-04-03T17:04:54;5.20;91.90
45685;DHT22;46836;48.388;16.210;2023-04-03T17:07:23;5.20;92.50
45685;DHT22;46836;48.388;16.210;2023-04-03T17:09:51;5.20;92.70
45685;DHT22;46836;48.388;16.210;2023-04-03T17:12:21;5.20;92.20
45685;DHT22;46836;48.388;16.210;2023-04-03T17:14:48;5.10;92.80
45685;DHT22;46836;48.388;16.210;2023-04-03T17:17:18;5.10;92.50
45685;DHT22;46836;48.388;16.210;2023-04-03T17:19:46;5.10;93.50